PWSweather.com
Personal Weather Stations
Station Observations
RTINEZ
TerrassaES 08226

TerrassaES 08226

Lat: 41.5762194, Lon: 2.028993700000001

Elevation: 367

Station Type: Watson W8681

www.rtinez.cat

High Low Average
Temperature 88.2°F31.2°C 63.9°F17.7°C 74.9°F23.8°C
Dew Point 63.2°F17.3°C 40.8°F4.9°C 50.7°F10.4°C
Winds 22.1 mph 35.6 kmh 0.7 mph 1.1 kmh 8.0 mph WSW12.9 kmh WSW
Wind Gusts 132.0 mph212.4 kmh 3.1 mph5.0 kmh 17.0 mph27.4 kmh
Humidity 78% 19% 47%
Pressure 30.03 in1016.9 mb 28.66 in970.5 mb -
Precipitation 0.00 in0.0 mm - -
Hour Temp Dew Point Humidity Winds Wind Gusts Pressure Precip Precip Rate Daily Precip Total
12:00 AM 65.8°F18.8°C 58.4°F14.7°C 77% 3.8 mph NW6.1 kmh NW 6.0 mph9.7 kmh 30.03 in1016.9 mb 0.00 in0.0 mm 0.00 in0.0 mm 0.00 in0.0 mm
12:15 AM 66.6°F19.2°C 57.7°F14.3°C 73% 5.4 mph NW8.7 kmh NW 6.0 mph9.7 kmh 28.80 in975.3 mb 0.00 in0.0 mm 0.00 in0.0 mm 0.00 in0.0 mm
12:30 AM 66.9°F19.4°C 56.4°F13.6°C 69% 6.0 mph NW9.7 kmh NW 6.9 mph11.1 kmh 28.80 in975.3 mb 0.00 in0.0 mm 0.00 in0.0 mm 0.00 in0.0 mm
12:45 AM 68.0°F20.0°C 54.1°F12.3°C 61% 5.4 mph NW8.7 kmh NW 6.9 mph11.1 kmh 28.80 in975.3 mb 0.00 in0.0 mm 0.00 in0.0 mm 0.00 in0.0 mm
01:00 AM 67.3°F19.6°C 53.8°F12.1°C 62% 0.7 mph NW1.1 kmh NW 4.5 mph7.2 kmh 28.80 in975.3 mb 0.00 in0.0 mm 0.00 in0.0 mm 0.00 in0.0 mm
01:15 AM 66.0°F18.9°C 54.8°F12.7°C 67% 2.2 mph WSW3.5 kmh WSW 4.5 mph7.2 kmh 28.80 in975.3 mb 0.00 in0.0 mm 0.00 in0.0 mm 0.00 in0.0 mm
01:30 AM 65.3°F18.5°C 54.9°F12.7°C 69% 3.8 mph WNW6.1 kmh WNW 6.9 mph11.1 kmh 30.03 in1016.9 mb 0.00 in0.0 mm 0.00 in0.0 mm 0.00 in0.0 mm
01:45 AM 65.3°F18.5°C 56.4°F13.6°C 73% 3.8 mph W6.1 kmh W 7.6 mph12.2 kmh 28.80 in975.3 mb 0.00 in0.0 mm 0.00 in0.0 mm 0.00 in0.0 mm
02:00 AM 64.8°F18.2°C 55.9°F13.3°C 73% 2.2 mph WNW3.5 kmh WNW 6.9 mph11.1 kmh 30.01 in1016.3 mb 0.00 in0.0 mm 0.00 in0.0 mm 0.00 in0.0 mm
02:15 AM 65.3°F18.5°C 52.0°F11.1°C 62% 2.2 mph W3.5 kmh W 4.5 mph7.2 kmh 30.01 in1016.3 mb 0.00 in0.0 mm 0.00 in0.0 mm 0.00 in0.0 mm
02:30 AM 65.1°F18.4°C 50.9°F10.5°C 60% 5.4 mph NW8.7 kmh NW 6.9 mph11.1 kmh 28.78 in974.6 mb 0.00 in0.0 mm 0.00 in0.0 mm 0.00 in0.0 mm
02:45 AM 66.2°F19.0°C 50.5°F10.3°C 57% 4.5 mph WNW7.2 kmh WNW 7.6 mph12.2 kmh 28.78 in974.6 mb 0.00 in0.0 mm 0.00 in0.0 mm 0.00 in0.0 mm
03:00 AM 64.6°F18.1°C 54.2°F12.3°C 69% 5.4 mph W8.7 kmh W 9.8 mph15.8 kmh 30.00 in1015.9 mb 0.00 in0.0 mm 0.00 in0.0 mm 0.00 in0.0 mm
03:15 AM 64.2°F17.9°C 55.0°F12.8°C 72% 1.6 mph W2.6 kmh W 6.9 mph11.1 kmh 29.99 in1015.6 mb 0.00 in0.0 mm 0.00 in0.0 mm 0.00 in0.0 mm
03:30 AM 63.9°F17.7°C 54.3°F12.4°C 71% 1.6 mph WNW2.6 kmh WNW 3.1 mph5.0 kmh 29.98 in1015.2 mb 0.00 in0.0 mm 0.00 in0.0 mm 0.00 in0.0 mm
03:45 AM 65.1°F18.4°C 52.2°F11.2°C 63% 1.6 mph NW2.6 kmh NW 5.4 mph8.7 kmh 28.76 in973.9 mb 0.00 in0.0 mm 0.00 in0.0 mm 0.00 in0.0 mm
04:00 AM 66.4°F19.1°C 51.6°F10.9°C 59% 6.0 mph WNW9.7 kmh WNW 9.2 mph14.8 kmh 28.76 in973.9 mb 0.00 in0.0 mm 0.00 in0.0 mm 0.00 in0.0 mm
04:15 AM 67.6°F19.8°C 49.4°F9.7°C 52% 9.2 mph NW14.8 kmh NW 12.1 mph19.5 kmh 29.97 in1014.9 mb 0.00 in0.0 mm 0.00 in0.0 mm 0.00 in0.0 mm
04:30 AM 68.2°F20.1°C 48.9°F9.4°C 50% 9.8 mph NW15.8 kmh NW 14.5 mph23.3 kmh 28.75 in973.6 mb 0.00 in0.0 mm 0.00 in0.0 mm 0.00 in0.0 mm
04:45 AM 68.0°F20.0°C 48.7°F9.3°C 50% 9.2 mph NW14.8 kmh NW 15.9 mph25.6 kmh 29.97 in1014.9 mb 0.00 in0.0 mm 0.00 in0.0 mm 0.00 in0.0 mm
05:00 AM 68.0°F20.0°C 48.7°F9.3°C 50% 7.6 mph WNW12.2 kmh WNW 13.6 mph21.9 kmh 28.75 in973.6 mb 0.00 in0.0 mm 0.00 in0.0 mm 0.00 in0.0 mm
05:15 AM 67.6°F19.8°C 48.9°F9.4°C 51% 8.3 mph W13.4 kmh W 9.8 mph15.8 kmh 29.97 in1014.9 mb 0.00 in0.0 mm 0.00 in0.0 mm 0.00 in0.0 mm
05:30 AM 65.8°F18.8°C 49.7°F9.8°C 56% 4.5 mph W7.2 kmh W 10.7 mph17.2 kmh 29.97 in1014.9 mb 0.00 in0.0 mm 0.00 in0.0 mm 0.00 in0.0 mm
05:45 AM 66.4°F19.1°C 49.3°F9.6°C 54% 7.6 mph WNW12.2 kmh WNW 12.1 mph19.5 kmh 29.97 in1014.9 mb 0.00 in0.0 mm 0.00 in0.0 mm 0.00 in0.0 mm
06:00 AM 65.3°F18.5°C 49.7°F9.8°C 57% 6.0 mph NW9.7 kmh NW 10.7 mph17.2 kmh 28.74 in973.2 mb 0.00 in0.0 mm 0.00 in0.0 mm 0.00 in0.0 mm
06:15 AM 66.6°F19.2°C 48.9°F9.4°C 53% 6.9 mph WNW11.1 kmh WNW 13.0 mph20.9 kmh 29.96 in1014.6 mb 0.00 in0.0 mm 0.00 in0.0 mm 0.00 in0.0 mm
06:30 AM 64.8°F18.2°C 49.7°F9.8°C 58% 8.3 mph W13.4 kmh W 12.1 mph19.5 kmh 29.96 in1014.6 mb 0.00 in0.0 mm 0.00 in0.0 mm 0.00 in0.0 mm
06:45 AM 65.1°F18.4°C 50.0°F10.0°C 58% 9.8 mph WNW15.8 kmh WNW 14.5 mph23.3 kmh 28.74 in973.2 mb 0.00 in0.0 mm 0.00 in0.0 mm 0.00 in0.0 mm
07:00 AM 66.2°F19.0°C 49.1°F9.5°C 54% 9.8 mph W15.8 kmh W 13.6 mph21.9 kmh 28.74 in973.2 mb 0.00 in0.0 mm 0.00 in0.0 mm 0.00 in0.0 mm
07:15 AM 67.6°F19.8°C 49.4°F9.7°C 52% 13.0 mph WNW20.9 kmh WNW 17.4 mph28.0 kmh 28.74 in973.2 mb 0.00 in0.0 mm 0.00 in0.0 mm 0.00 in0.0 mm
07:30 AM 68.7°F20.4°C 49.4°F9.7°C 50% 13.6 mph NW21.9 kmh NW 17.4 mph28.0 kmh 28.74 in973.2 mb 0.00 in0.0 mm 0.00 in0.0 mm 0.00 in0.0 mm
07:45 AM 69.4°F20.8°C 50.0°F10.0°C 50% 9.8 mph W15.8 kmh W 16.8 mph27.0 kmh 28.74 in973.2 mb 0.00 in0.0 mm 0.00 in0.0 mm 0.00 in0.0 mm
08:00 AM 69.8°F21.0°C 49.2°F9.6°C 48% 11.4 mph W18.3 kmh W 17.4 mph28.0 kmh 28.74 in973.2 mb 0.00 in0.0 mm 0.00 in0.0 mm 0.00 in0.0 mm
08:15 AM 69.6°F20.9°C 50.2°F10.1°C 50% 9.8 mph WNW15.8 kmh WNW 16.8 mph27.0 kmh 29.96 in1014.6 mb 0.00 in0.0 mm 0.00 in0.0 mm 0.00 in0.0 mm
08:30 AM 71.2°F21.8°C 49.4°F9.7°C 46% 9.2 mph W14.8 kmh W 14.5 mph23.3 kmh 29.96 in1014.6 mb 0.00 in0.0 mm 0.00 in0.0 mm 0.00 in0.0 mm
08:45 AM 72.1°F22.3°C 47.8°F8.8°C 42% 10.7 mph WNW17.2 kmh WNW 15.2 mph24.5 kmh 29.96 in1014.6 mb 0.00 in0.0 mm 0.00 in0.0 mm 0.00 in0.0 mm
09:00 AM 73.4°F23.0°C 45.6°F7.6°C 37% 12.1 mph WNW19.5 kmh WNW 15.9 mph25.6 kmh 28.74 in973.2 mb 0.00 in0.0 mm 0.00 in0.0 mm 0.00 in0.0 mm
09:15 AM 74.1°F23.4°C 45.5°F7.5°C 36% 13.0 mph NW20.9 kmh NW 15.9 mph25.6 kmh 29.96 in1014.6 mb 0.00 in0.0 mm 0.00 in0.0 mm 0.00 in0.0 mm
09:30 AM 74.7°F23.7°C 46.0°F7.8°C 36% 10.7 mph WNW17.2 kmh WNW 19.7 mph31.7 kmh 28.74 in973.2 mb 0.00 in0.0 mm 0.00 in0.0 mm 0.00 in0.0 mm
09:45 AM 74.7°F23.7°C 46.7°F8.2°C 37% 22.1 mph NW35.6 kmh NW 25.9 mph41.7 kmh 28.74 in973.2 mb 0.00 in0.0 mm 0.00 in0.0 mm 0.00 in0.0 mm
10:00 AM 75.7°F24.3°C 46.9°F8.3°C 36% 9.2 mph NW14.8 kmh NW 23.5 mph37.8 kmh 28.74 in973.2 mb 0.00 in0.0 mm 0.00 in0.0 mm 0.00 in0.0 mm
10:15 AM 78.6°F25.9°C 47.9°F8.8°C 34% 12.1 mph NW19.5 kmh NW 132.0 mph212.4 kmh 29.96 in1014.6 mb 0.00 in0.0 mm 0.00 in0.0 mm 0.00 in0.0 mm
10:30 AM 79.0°F26.1°C 46.6°F8.1°C 32% 14.5 mph WNW23.3 kmh WNW 132.0 mph212.4 kmh 29.96 in1014.6 mb 0.00 in0.0 mm 0.00 in0.0 mm 0.00 in0.0 mm
10:45 AM 79.7°F26.5°C 47.3°F8.5°C 32% 13.0 mph WNW20.9 kmh WNW 19.0 mph30.6 kmh 28.73 in972.9 mb 0.00 in0.0 mm 0.00 in0.0 mm 0.00 in0.0 mm
11:00 AM 79.5°F26.4°C 46.3°F7.9°C 31% 9.8 mph W15.8 kmh W 22.1 mph35.6 kmh 29.95 in1014.2 mb 0.00 in0.0 mm 0.00 in0.0 mm 0.00 in0.0 mm
11:15 AM 80.4°F26.9°C 46.2°F7.9°C 30% 12.1 mph WNW19.5 kmh WNW 17.4 mph28.0 kmh 28.73 in972.9 mb 0.00 in0.0 mm 0.00 in0.0 mm 0.00 in0.0 mm
11:30 AM 80.8°F27.1°C 45.6°F7.6°C 29% 13.0 mph WNW20.9 kmh WNW 23.5 mph37.8 kmh 28.73 in972.9 mb 0.00 in0.0 mm 0.00 in0.0 mm 0.00 in0.0 mm
11:45 AM 81.3°F27.4°C 45.1°F7.3°C 28% 15.9 mph NW25.6 kmh NW 25.1 mph40.4 kmh 29.95 in1014.2 mb 0.00 in0.0 mm 0.00 in0.0 mm 0.00 in0.0 mm
12:00 PM 81.9°F27.7°C 45.6°F7.6°C 28% 10.7 mph W17.2 kmh W 23.5 mph37.8 kmh 28.72 in972.6 mb 0.00 in0.0 mm 0.00 in0.0 mm 0.00 in0.0 mm
12:15 PM 82.6°F28.1°C 44.3°F6.8°C 26% 15.9 mph NW25.6 kmh NW 20.6 mph33.2 kmh 28.72 in972.6 mb 0.00 in0.0 mm 0.00 in0.0 mm 0.00 in0.0 mm
12:30 PM 83.3°F28.5°C 43.9°F6.6°C 25% 18.3 mph W29.5 kmh W 22.1 mph35.6 kmh 29.94 in1013.9 mb 0.00 in0.0 mm 0.00 in0.0 mm 0.00 in0.0 mm
12:45 PM 84.2°F29.0°C 43.5°F6.4°C 24% 13.6 mph NW21.9 kmh NW 26.6 mph42.8 kmh 28.71 in972.2 mb 0.00 in0.0 mm 0.00 in0.0 mm 0.00 in0.0 mm
01:00 PM 84.4°F29.1°C 43.7°F6.5°C 24% 13.0 mph W20.9 kmh W 25.9 mph41.7 kmh 28.70 in971.9 mb 0.00 in0.0 mm 0.00 in0.0 mm 0.00 in0.0 mm
01:15 PM 84.7°F29.3°C 44.0°F6.7°C 24% 12.1 mph WNW19.5 kmh WNW 20.6 mph33.2 kmh 29.92 in1013.2 mb 0.00 in0.0 mm 0.00 in0.0 mm 0.00 in0.0 mm
01:30 PM 85.1°F29.5°C 44.3°F6.8°C 24% 11.4 mph WNW18.3 kmh WNW 23.5 mph37.8 kmh 28.69 in971.6 mb 0.00 in0.0 mm 0.00 in0.0 mm 0.00 in0.0 mm
01:45 PM 85.3°F29.6°C 43.3°F6.3°C 23% 15.2 mph NW24.5 kmh NW 22.1 mph35.6 kmh 28.69 in971.6 mb 0.00 in0.0 mm 0.00 in0.0 mm 0.00 in0.0 mm
02:00 PM 84.7°F29.3°C 44.0°F6.7°C 24% 15.2 mph NW24.5 kmh NW 22.1 mph35.6 kmh 28.69 in971.6 mb 0.00 in0.0 mm 0.00 in0.0 mm 0.00 in0.0 mm
02:15 PM 85.8°F29.9°C 43.8°F6.6°C 23% 11.4 mph WNW18.3 kmh WNW 22.8 mph36.7 kmh 28.67 in970.9 mb 0.00 in0.0 mm 0.00 in0.0 mm 0.00 in0.0 mm
02:30 PM 86.4°F30.2°C 43.1°F6.2°C 22% 11.4 mph W18.3 kmh W 23.5 mph37.8 kmh 29.90 in1012.5 mb 0.00 in0.0 mm 0.00 in0.0 mm 0.00 in0.0 mm
02:45 PM 86.4°F30.2°C 43.1°F6.2°C 22% 9.2 mph NW14.8 kmh NW 19.7 mph31.7 kmh 29.90 in1012.5 mb 0.00 in0.0 mm 0.00 in0.0 mm 0.00 in0.0 mm
03:00 PM 87.3°F30.7°C 42.6°F5.9°C 21% 15.9 mph WSW25.6 kmh WSW 28.2 mph45.4 kmh 28.67 in970.9 mb 0.00 in0.0 mm 0.00 in0.0 mm 0.00 in0.0 mm
03:15 PM 86.4°F30.2°C 41.9°F5.5°C 21% 13.6 mph WNW21.9 kmh WNW 28.9 mph46.5 kmh 29.89 in1012.2 mb 0.00 in0.0 mm 0.00 in0.0 mm 0.00 in0.0 mm
03:30 PM 87.1°F30.6°C 41.2°F5.1°C 20% 8.3 mph W13.4 kmh W 28.9 mph46.5 kmh 29.90 in1012.5 mb 0.00 in0.0 mm 0.00 in0.0 mm 0.00 in0.0 mm
03:45 PM 87.4°F30.8°C 41.5°F5.3°C 20% 14.5 mph W23.3 kmh W 25.9 mph41.7 kmh 28.68 in971.2 mb 0.00 in0.0 mm 0.00 in0.0 mm 0.00 in0.0 mm
04:00 PM 87.3°F30.7°C 41.3°F5.2°C 20% 9.2 mph WNW14.8 kmh WNW 22.1 mph35.6 kmh 28.67 in970.9 mb 0.00 in0.0 mm 0.00 in0.0 mm 0.00 in0.0 mm
04:15 PM 88.2°F31.2°C 40.8°F4.9°C 19% 15.9 mph W25.6 kmh W 18.3 mph29.5 kmh 28.67 in970.9 mb 0.00 in0.0 mm 0.00 in0.0 mm 0.00 in0.0 mm
04:30 PM 87.6°F30.9°C 41.6°F5.3°C 20% 6.9 mph WNW11.1 kmh WNW 23.5 mph37.8 kmh 28.66 in970.5 mb 0.00 in0.0 mm 0.00 in0.0 mm 0.00 in0.0 mm
04:45 PM 86.7°F30.4°C 40.9°F4.9°C 20% 6.9 mph WNW11.1 kmh WNW 22.1 mph35.6 kmh 28.67 in970.9 mb 0.00 in0.0 mm 0.00 in0.0 mm 0.00 in0.0 mm
05:00 PM 86.9°F30.5°C 41.1°F5.1°C 20% 7.6 mph WNW12.2 kmh WNW 19.0 mph30.6 kmh 29.89 in1012.2 mb 0.00 in0.0 mm 0.00 in0.0 mm 0.00 in0.0 mm
05:15 PM 86.7°F30.4°C 42.2°F5.7°C 21% 12.1 mph WNW19.5 kmh WNW 17.4 mph28.0 kmh 28.66 in970.5 mb 0.00 in0.0 mm 0.00 in0.0 mm 0.00 in0.0 mm
05:30 PM 86.2°F30.1°C 41.7°F5.4°C 21% 6.0 mph W9.7 kmh W 19.7 mph31.7 kmh 28.66 in970.5 mb 0.00 in0.0 mm 0.00 in0.0 mm 0.00 in0.0 mm
05:45 PM 86.2°F30.1°C 42.9°F6.1°C 22% 5.4 mph WNW8.7 kmh WNW 15.2 mph24.5 kmh 28.67 in970.9 mb 0.00 in0.0 mm 0.00 in0.0 mm 0.00 in0.0 mm
06:00 PM 85.3°F29.6°C 52.1°F11.2°C 32% 5.4 mph W8.7 kmh W 17.4 mph28.0 kmh 28.67 in970.9 mb 0.00 in0.0 mm 0.00 in0.0 mm 0.00 in0.0 mm
06:15 PM 83.1°F28.4°C 53.4°F11.9°C 36% 14.5 mph W23.3 kmh W 20.6 mph33.2 kmh 28.67 in970.9 mb 0.00 in0.0 mm 0.00 in0.0 mm 0.00 in0.0 mm
06:30 PM 82.2°F27.9°C 54.8°F12.7°C 39% 10.7 mph W17.2 kmh W 17.4 mph28.0 kmh 28.68 in971.2 mb 0.00 in0.0 mm 0.00 in0.0 mm 0.00 in0.0 mm
06:45 PM 79.7°F26.5°C 55.9°F13.3°C 44% 8.3 mph WNW13.4 kmh WNW 18.3 mph29.5 kmh 29.90 in1012.5 mb 0.00 in0.0 mm 0.00 in0.0 mm 0.00 in0.0 mm
07:00 PM 79.0°F26.1°C 57.1°F13.9°C 47% 3.8 mph W6.1 kmh W 12.1 mph19.5 kmh 29.91 in1012.9 mb 0.00 in0.0 mm 0.00 in0.0 mm 0.00 in0.0 mm
07:15 PM 78.6°F25.9°C 57.9°F14.4°C 49% 6.9 mph W11.1 kmh W 9.2 mph14.8 kmh 29.91 in1012.9 mb 0.00 in0.0 mm 0.00 in0.0 mm 0.00 in0.0 mm
07:30 PM 78.6°F25.9°C 58.5°F14.7°C 50% 6.9 mph WSW11.1 kmh WSW 9.8 mph15.8 kmh 29.91 in1012.9 mb 0.00 in0.0 mm 0.00 in0.0 mm 0.00 in0.0 mm
07:45 PM 77.2°F25.1°C 57.1°F13.9°C 50% 2.2 mph NW3.5 kmh NW 7.6 mph12.2 kmh 29.92 in1013.2 mb 0.00 in0.0 mm 0.00 in0.0 mm 0.00 in0.0 mm
08:00 PM 77.2°F25.1°C 57.7°F14.3°C 51% 2.2 mph NW3.5 kmh NW 5.4 mph8.7 kmh 29.93 in1013.5 mb 0.00 in0.0 mm 0.00 in0.0 mm 0.00 in0.0 mm
08:15 PM 76.8°F24.9°C 59.0°F15.0°C 54% 2.2 mph E3.5 kmh E 3.8 mph6.1 kmh 29.93 in1013.5 mb 0.00 in0.0 mm 0.00 in0.0 mm 0.00 in0.0 mm
08:30 PM 75.7°F24.3°C 62.3°F16.8°C 63% 2.2 mph E3.5 kmh E 6.0 mph9.7 kmh 28.71 in972.2 mb 0.00 in0.0 mm 0.00 in0.0 mm 0.00 in0.0 mm
08:45 PM 73.4°F23.0°C 61.8°F16.6°C 67% 0.7 mph E1.1 kmh E 3.1 mph5.0 kmh 29.94 in1013.9 mb 0.00 in0.0 mm 0.00 in0.0 mm 0.00 in0.0 mm
09:00 PM 72.7°F22.6°C 62.0°F16.7°C 69% 2.2 mph E3.5 kmh E 4.5 mph7.2 kmh 29.94 in1013.9 mb 0.00 in0.0 mm 0.00 in0.0 mm 0.00 in0.0 mm
09:15 PM 72.0°F22.2°C 62.5°F16.9°C 72% 3.8 mph E6.1 kmh E 6.9 mph11.1 kmh 28.71 in972.2 mb 0.00 in0.0 mm 0.00 in0.0 mm 0.00 in0.0 mm
09:30 PM 71.4°F21.9°C 62.7°F17.1°C 74% 3.1 mph E5.0 kmh E 6.9 mph11.1 kmh 29.94 in1013.9 mb 0.00 in0.0 mm 0.00 in0.0 mm 0.00 in0.0 mm
09:45 PM 70.7°F21.5°C 62.8°F17.1°C 76% 3.8 mph E6.1 kmh E 6.9 mph11.1 kmh 29.94 in1013.9 mb 0.00 in0.0 mm 0.00 in0.0 mm 0.00 in0.0 mm
10:00 PM 70.3°F21.3°C 63.2°F17.3°C 78% 3.1 mph NE5.0 kmh NE 6.9 mph11.1 kmh 28.72 in972.6 mb 0.00 in0.0 mm 0.00 in0.0 mm 0.00 in0.0 mm
10:15 PM 70.0°F21.1°C 62.8°F17.1°C 78% 3.8 mph E6.1 kmh E 10.7 mph17.2 kmh 29.93 in1013.5 mb 0.00 in0.0 mm 0.00 in0.0 mm 0.00 in0.0 mm
10:30 PM 70.2°F21.2°C 61.5°F16.4°C 74% 4.5 mph NE7.2 kmh NE 9.2 mph14.8 kmh 29.94 in1013.9 mb 0.00 in0.0 mm 0.00 in0.0 mm 0.00 in0.0 mm
10:45 PM 69.8°F21.0°C 61.2°F16.2°C 74% 3.1 mph ENE5.0 kmh ENE 7.6 mph12.2 kmh 28.71 in972.2 mb 0.00 in0.0 mm 0.00 in0.0 mm 0.00 in0.0 mm
11:00 PM 69.8°F21.0°C 60.8°F16.0°C 73% 3.8 mph NE6.1 kmh NE 7.6 mph12.2 kmh 29.94 in1013.9 mb 0.00 in0.0 mm 0.00 in0.0 mm 0.00 in0.0 mm
11:15 PM 69.8°F21.0°C 60.8°F16.0°C 73% 3.8 mph NE6.1 kmh NE 6.9 mph11.1 kmh 28.71 in972.2 mb 0.00 in0.0 mm 0.00 in0.0 mm 0.00 in0.0 mm
11:30 PM 69.4°F20.8°C 61.2°F16.2°C 75% 3.8 mph NE6.1 kmh NE 6.9 mph11.1 kmh 28.71 in972.2 mb 0.00 in0.0 mm 0.00 in0.0 mm 0.00 in0.0 mm
11:45 PM 69.3°F20.7°C 61.0°F16.1°C 75% 3.1 mph NE5.0 kmh NE 6.0 mph9.7 kmh 28.71 in972.2 mb 0.00 in0.0 mm 0.00 in0.0 mm 0.00 in0.0 mm